Time;durP1;ratioP1;P1;durP2;ratioP2;P2;SDS_P1;SDS_P2;PMS_P1;PMS_P2;Temp;Humidity;BMP_temperature;BMP_pressure;BME280_temperature;BME280_humidity;BME280_pressure;Samples;Min_cycle;Max_cycle;Signal;HPM_P1;HPM_P2
2021/01/20 00:04:58;;;;;;;13.27;9.07;;;6.50;99.90;;;;;;9956293;29;20611;-94
2021/01/20 00:10:00;;;;;;;17.65;10.27;;;6.70;99.90;;;;;;9941604;29;20414;-94
2021/01/20 00:15:05;;;;;;;13.15;9.38;;;6.50;99.90;;;;;;9971424;29;20054;-94
2021/01/20 00:20:08;;;;;;;12.13;8.50;;;6.40;99.90;;;;;;9971222;29;20069;-94
2021/01/20 00:25:11;;;;;;;17.35;9.63;;;6.40;99.90;;;;;;9956695;29;20089;-95
2021/01/20 00:30:14;;;;;;;15.73;9.32;;;6.40;99.90;;;;;;9956622;29;20141;-95
2021/01/20 00:35:22;;;;;;;19.20;9.52;;;6.40;99.90;;;;;;9956260;29;20475;-95
2021/01/20 00:40:24;;;;;;;14.65;8.77;;;6.80;99.90;;;;;;9971684;29;20068;-94
2021/01/20 00:45:25;;;;;;;13.60;8.70;;;6.70;99.90;;;;;;9956656;29;20054;-95
2021/01/20 00:50:27;;;;;;;11.60;7.30;;;6.20;99.90;;;;;;9940926;29;20062;-95
2021/01/20 00:55:28;;;;;;;9.70;7.07;;;6.00;99.90;;;;;;9955699;29;20503;-94
2021/01/20 01:00:30;;;;;;;12.52;7.47;;;6.60;99.90;;;;;;9954740;29;20062;-93
2021/01/20 01:05:31;;;;;;;12.27;8.10;;;6.20;99.90;;;;;;9940615;29;20520;-94
2021/01/20 01:10:33;;;;;;;;;;;6.70;99.90;;;;;;9956744;29;20069;-94
2021/01/20 01:15:34;;;;;;;9.30;6.50;;;6.50;99.90;;;;;;9969999;29;19931;-95
2021/01/20 01:20:36;;;;;;;12.25;7.35;;;6.40;99.90;;;;;;9939982;29;20060;-95
2021/01/20 01:25:37;;;;;;;16.95;6.65;;;6.20;99.90;;;;;;9956189;29;20145;-94
2021/01/20 01:30:39;;;;;;;13.90;5.40;;;6.50;99.90;;;;;;9940007;29;20093;-94
2021/01/20 01:35:41;;;;;;;10.38;5.85;;;6.40;99.90;;;;;;9954856;29;20165;-95
2021/01/20 01:40:42;;;;;;;9.43;5.88;;;6.80;99.90;;;;;;9939756;29;20054;-95
2021/01/20 01:45:44;;;;;;;11.90;6.32;;;6.60;99.90;;;;;;9939082;29;20422;-95
2021/01/20 01:50:48;;;;;;;13.48;6.20;;;6.40;99.90;;;;;;9969088;29;20541;-94
2021/01/20 01:55:50;;;;;;;10.57;6.20;;;6.30;99.90;;;;;;9954448;29;20145;-93
2021/01/20 02:00:54;;;;;;;13.88;6.65;;;6.40;99.90;;;;;;9968793;29;20058;-94
2021/01/20 02:05:55;;;;;;;14.02;6.68;;;6.30;99.90;;;;;;9954182;29;20090;-93
2021/01/20 02:11:10;;;;;;;10.07;6.05;;;6.30;99.90;;;;;;9957747;29;20208;-94
2021/01/20 02:16:26;;;;;;;8.05;5.68;;;6.50;99.90;;;;;;9975585;29;20069;-95
2021/01/20 02:21:43;;;;;;;11.60;5.78;;;6.40;99.90;;;;;;9975674;29;20070;-95
2021/01/20 02:27:04;;;;;;;10.93;5.68;;;6.40;99.90;;;;;;9961228;29;20058;-95
2021/01/20 02:32:07;;;;;;;14.90;7.50;;;6.40;99.90;;;;;;9976621;29;20062;-94
2021/01/20 02:37:11;;;;;;;10.15;5.97;;;6.30;99.90;;;;;;9960430;29;20074;-94
2021/01/20 02:42:12;;;;;;;10.88;6.47;;;6.60;99.90;;;;;;9960078;29;20067;-93
2021/01/20 02:47:14;;;;;;;10.38;5.88;;;6.70;99.90;;;;;;9959736;29;20062;-94
2021/01/20 02:52:58;;;;;;;8.57;5.85;;;6.60;99.90;;;;;;9959688;29;20127;-94
2021/01/20 02:58:05;;;;;;;12.52;6.75;;;6.50;99.90;;;;;;9988329;29;20069;-96
2021/01/20 03:03:10;;;;;;;11.45;6.88;;;6.40;99.90;;;;;;9973806;29;20406;-95
2021/01/20 03:08:13;;;;;;;10.63;6.43;;;7.30;99.90;;;;;;9974202;29;20054;-95
2021/01/20 03:13:16;;;;;;;10.85;6.60;;;7.20;99.90;;;;;;9958556;29;20129;-94
2021/01/20 03:18:17;;;;;;;9.20;6.10;;;6.90;99.90;;;;;;9958881;29;20058;-94
2021/01/20 03:23:18;;;;;;;9.35;5.97;;;6.40;99.90;;;;;;9942332;29;20521;-94
2021/01/20 03:28:20;;;;;;;9.80;5.35;;;6.70;99.90;;;;;;9945414;29;20062;-94
2021/01/20 03:33:21;;;;;;;11.00;6.03;;;7.00;99.90;;;;;;9958664;29;20145;-95
2021/01/20 03:38:23;;;;;;;;;;;7.00;99.90;;;;;;9958730;29;20101;-94
2021/01/20 03:43:24;;;;;;;7.57;5.03;;;7.30;99.90;;;;;;9957666;29;20292;-95
2021/01/20 03:48:26;;;;;;;6.70;5.30;;;6.90;99.90;;;;;;9957621;29;20054;-95
2021/01/20 03:53:28;;;;;;;8.55;5.72;;;7.40;99.90;;;;;;9957923;29;20115;-94
2021/01/20 03:58:30;;;;;;;8.18;4.68;;;7.60;99.90;;;;;;9957551;29;20059;-94
2021/01/20 04:03:31;;;;;;;5.97;4.22;;;7.10;99.90;;;;;;9942393;29;20418;-94
2021/01/20 04:08:33;;;;;;;;;;;7.80;99.90;;;;;;9957179;29;20055;-95
2021/01/20 04:13:37;;;;;;;6.78;4.43;;;7.70;99.90;;;;;;9972083;29;19975;-94
2021/01/20 04:18:39;;;;;;;8.65;4.40;;;8.10;99.90;;;;;;9956945;29;20515;-94
2021/01/20 04:23:40;;;;;;;8.07;4.63;;;7.30;99.90;;;;;;9956403;29;20065;-94
2021/01/20 04:28:42;;;;;;;7.82;4.55;;;7.00;99.90;;;;;;9941769;29;20058;-95
2021/01/20 04:33:43;;;;;;;6.10;3.83;;;7.10;99.90;;;;;;9956047;29;20069;-94
2021/01/20 04:38:49;;;;;;;6.43;5.30;;;7.40;99.90;;;;;;9957993;29;20070;-94
2021/01/20 04:43:50;;;;;;;8.65;4.20;;;7.40;99.90;;;;;;9941242;29;20060;-95
2021/01/20 04:48:54;;;;;;;4.75;4.30;;;7.50;99.90;;;;;;9941078;29;20563;-94
2021/01/20 04:53:57;;;;;;;5.03;4.53;;;7.80;99.90;;;;;;9970960;29;20058;-95
2021/01/20 04:58:58;;;;;;;7.90;5.35;;;7.40;99.90;;;;;;9955899;29;20085;-95
2021/01/20 07:07:56;;;;;;;5.05;3.10;;;7.50;99.90;;;;;;10026593;29;20406;-95
2021/01/20 07:13:34;;;;;;;3.10;2.38;;;7.80;99.90;;;;;;10027223;29;20085;-94
2021/01/20 07:18:42;;;;;;;4.45;2.20;;;7.60;99.90;;;;;;9990948;29;20520;-95
2021/01/20 07:23:44;;;;;;;3.75;2.60;;;8.00;99.90;;;;;;10011809;29;20054;-95
2021/01/20 07:28:46;;;;;;;2.92;2.47;;;7.70;99.90;;;;;;10011194;29;20053;-94
2021/01/20 07:33:51;;;;;;;3.22;2.35;;;7.60;99.90;;;;;;9981195;29;20085;-95
2021/01/20 07:38:52;;;;;;;2.90;2.47;;;8.00;99.90;;;;;;10025633;29;20549;-95
2021/01/20 07:44:05;;;;;;;;;;;7.70;99.90;;;;;;9981001;29;20517;-95
2021/01/20 07:49:14;;;;;;;2.90;2.17;;;7.70;99.90;;;;;;10010519;29;19999;-94
2021/01/20 07:54:15;;;;;;;2.45;2.25;;;7.60;99.90;;;;;;9995098;29;20092;-94
2021/01/20 07:59:19;;;;;;;2.42;2.22;;;7.90;99.90;;;;;;9980332;29;20064;-93
2021/01/20 08:04:22;;;;;;;2.70;2.50;;;7.50;99.90;;;;;;10023010;29;20057;-94
2021/01/20 08:09:44;;;;;;;4.50;2.70;;;8.10;99.90;;;;;;10017604;29;20057;-94
2021/01/20 08:14:47;;;;;;;4.72;2.70;;;8.10;99.90;;;;;;10046968;29;20057;-95
2021/01/20 08:19:55;;;;;;;3.88;2.70;;;8.30;99.90;;;;;;10001625;29;20103;-93
2021/01/20 08:24:57;;;;;;;2.38;2.17;;;7.70;99.90;;;;;;10016330;29;20060;-94
2021/01/20 08:29:59;;;;;;;3.45;2.25;;;8.30;99.90;;;;;;10047219;29;20057;-94
2021/01/20 08:35:01;;;;;;;2.67;2.47;;;8.30;99.90;;;;;;10032282;29;20065;-93
2021/01/20 08:40:05;;;;;;;;;;;7.70;99.90;;;;;;10016988;29;20071;-94
2021/01/20 08:45:29;;;;;;;2.53;2.33;;;7.80;99.90;;;;;;10046563;29;19931;-95
2021/01/20 08:50:34;;;;;;;4.07;1.90;;;7.80;99.90;;;;;;10032118;29;20458;-96
2021/01/20 08:55:42;;;;;;;3.45;2.35;;;7.80;99.90;;;;;;10046368;29;20119;-93
2021/01/20 09:00:45;;;;;;;2.58;2.22;;;8.10;99.90;;;;;;10046937;29;20137;-94
2021/01/20 09:05:52;;;;;;;2.70;2.05;;;8.10;99.90;;;;;;10000752;29;20615;-94
2021/01/20 09:10:56;;;;;;;4.20;2.00;;;8.10;99.90;;;;;;10016386;29;20145;-92
2021/01/20 09:15:58;;;;;;;2.20;1.92;;;7.90;99.90;;;;;;10016448;29;20085;-94
2021/01/20 09:21:02;;;;;;;1.90;1.80;;;8.10;99.90;;;;;;10014909;29;20178;-94
2021/01/20 09:26:04;;;;;;;2.92;2.10;;;8.90;99.90;;;;;;10015879;29;20057;-94
2021/01/20 09:31:05;;;;;;;;;;;8.90;99.90;;;;;;10031604;29;20080;-94
2021/01/20 09:36:07;;;;;;;7.65;2.20;;;8.30;99.90;;;;;;10030186;29;20015;-94
2021/01/20 09:41:08;;;;;;;;;;;8.50;99.90;;;;;;10031067;29;20088;-92
2021/01/20 09:46:10;;;;;;;5.70;1.55;;;8.70;99.90;;;;;;10015225;29;19924;-95
2021/01/20 09:51:13;;;;;;;4.70;2.03;;;8.80;99.90;;;;;;10030048;29;20088;-94
2021/01/20 09:56:14;;;;;;;3.35;1.75;;;9.20;99.90;;;;;;10015144;29;20494;-95
2021/01/20 10:01:18;;;;;;;2.22;1.85;;;9.50;99.90;;;;;;10001821;29;20057;-94
2021/01/20 10:06:23;;;;;;;3.17;1.75;;;8.70;99.90;;;;;;9999455;29;20057;-94
2021/01/20 10:11:24;;;;;;;2.33;1.63;;;8.90;99.90;;;;;;10015116;29;20136;-93
2021/01/20 10:16:26;;;;;;;2.65;1.65;;;9.40;99.90;;;;;;10014405;29;20092;-94
2021/01/20 10:21:28;;;;;;;1.73;1.58;;;8.90;99.90;;;;;;9998865;29;20064;-94
2021/01/20 10:26:30;;;;;;;2.22;1.80;;;8.90;99.90;;;;;;10029340;29;20076;-96
2021/01/20 10:31:34;;;;;;;4.47;2.10;;;8.80;99.90;;;;;;10032805;29;20114;-95
2021/01/20 10:36:38;;;;;;;1.85;1.65;;;8.90;99.90;;;;;;10051685;29;20084;-95
2021/01/20 10:41:39;;;;;;;2.50;2.30;;;9.30;99.90;;;;;;10035675;29;20105;-94
2021/01/20 10:46:41;;;;;;;3.10;1.77;;;9.50;99.90;;;;;;10050882;29;20076;-94
2021/01/20 10:51:42;;;;;;;;;;;9.50;99.90;;;;;;10006022;29;20065;-94
2021/01/20 10:56:44;;;;;;;1.93;1.73;;;9.90;99.90;;;;;;10012436;29;19928;-94
2021/01/20 11:01:46;;;;;;;3.33;1.80;;;9.70;99.90;;;;;;10019155;23;20081;-93
2021/01/20 11:06:47;;;;;;;2.42;1.92;;;9.60;99.90;;;;;;9982401;29;20106;-94
2021/01/20 11:11:49;;;;;;;2.35;1.85;;;9.60;99.90;;;;;;10000239;29;20071;-93
2021/01/20 11:16:53;;;;;;;2.42;1.80;;;9.70;99.90;;;;;;10004071;29;20076;-93
2021/01/20 11:21:58;;;;;;;1.92;1.60;;;9.80;99.90;;;;;;10019534;29;20074;-94
2021/01/20 11:27:00;;;;;;;2.95;1.83;;;9.80;99.90;;;;;;10026786;29;20508;-94
2021/01/20 11:32:01;;;;;;;2.25;1.65;;;9.80;99.90;;;;;;10010762;29;20093;-93
2021/01/20 11:37:04;;;;;;;1.98;1.77;;;9.70;99.90;;;;;;10014936;29;20067;-93
2021/01/20 11:42:05;;;;;;;1.80;1.50;;;9.70;99.90;;;;;;10040435;29;20064;-93
2021/01/20 11:47:07;;;;;;;;;;;9.60;99.90;;;;;;10010877;29;20065;-93
2021/01/20 11:52:09;;;;;;;1.52;1.25;;;9.70;99.90;;;;;;10040070;29;19928;-93
2021/01/20 11:57:11;;;;;;;3.67;1.45;;;9.70;99.90;;;;;;10025401;29;20061;-93
2021/01/20 12:02:12;;;;;;;4.50;1.98;;;9.90;99.90;;;;;;10034931;29;20163;-93
2021/01/20 12:07:14;;;;;;;3.28;1.63;;;9.60;99.90;;;;;;10047927;29;20121;-94
2021/01/20 12:12:16;;;;;;;;;;;9.60;99.90;;;;;;10003209;29;20148;-94
2021/01/20 12:17:18;;;;;;;1.73;1.27;;;9.50;99.90;;;;;;10032706;29;19967;-94
2021/01/20 12:22:19;;;;;;;4.82;1.90;;;9.30;99.90;;;;;;10021559;29;20069;-92
2021/01/20 12:27:21;;;;;;;4.13;1.95;;;9.40;99.90;;;;;;9996550;29;20057;-94
2021/01/20 12:32:22;;;;;;;;;;;9.50;99.90;;;;;;9994525;29;20065;-93
2021/01/20 12:37:24;;;;;;;2.75;1.85;;;9.50;99.90;;;;;;10008847;29;19925;-93
2021/01/20 12:42:26;;;;;;;3.30;2.22;;;9.60;99.90;;;;;;10008568;29;20114;-93
2021/01/20 12:47:27;;;;;;;;;;;9.40;99.90;;;;;;9994488;29;20058;-93
2021/01/20 12:52:29;;;;;;;6.35;2.20;;;9.40;99.90;;;;;;10023163;29;19928;-93
2021/01/20 12:57:31;;;;;;;;;;;9.40;99.90;;;;;;10024967;29;20079;-93
2021/01/20 13:02:34;;;;;;;5.47;2.17;;;9.50;99.90;;;;;;10008429;29;19925;-93
2021/01/20 13:07:36;;;;;;;3.13;1.65;;;9.50;99.90;;;;;;9991558;29;20118;-93
2021/01/20 13:12:40;;;;;;;2.90;2.10;;;9.30;99.90;;;;;;9992776;29;20077;-93
2021/01/20 13:17:42;;;;;;;4.43;2.03;;;9.80;99.90;;;;;;9992498;29;20068;-93
2021/01/20 13:22:44;;;;;;;;;;;9.80;99.90;;;;;;9991975;29;20459;-93
2021/01/20 13:27:45;;;;;;;3.72;1.90;;;9.80;99.90;;;;;;10007163;29;19932;-93
2021/01/20 13:32:47;;;;;;;2.33;1.83;;;9.80;99.90;;;;;;9992295;29;20054;-93
2021/01/20 13:37:49;;;;;;;3.80;1.90;;;9.80;99.90;;;;;;10014897;29;20069;-92
2021/01/20 13:42:52;;;;;;;3.28;1.98;;;9.80;99.90;;;;;;10029737;29;20140;-93
2021/01/20 13:47:54;;;;;;;4.43;1.88;;;9.70;99.90;;;;;;10029930;29;20060;-93
2021/01/20 13:52:55;;;;;;;12.18;2.50;;;9.70;99.90;;;;;;9991162;29;20061;-94
2021/01/20 13:57:57;;;;;;;3.80;2.47;;;9.30;99.90;;;;;;9978593;29;20057;-93
2021/01/20 14:02:58;;;;;;;6.45;2.03;;;9.30;99.90;;;;;;10012777;29;20077;-94
2021/01/20 14:08:00;;;;;;;3.38;2.25;;;9.50;99.90;;;;;;10066406;29;20065;-94
2021/01/20 14:13:02;;;;;;;2.75;1.98;;;9.50;99.90;;;;;;10007136;29;20085;-94
2021/01/20 14:18:04;;;;;;;2.80;2.38;;;9.60;99.90;;;;;;10036584;29;20058;-95
2021/01/20 14:23:05;;;;;;;2.85;2.22;;;9.60;99.90;;;;;;10035962;29;20394;-94
2021/01/20 14:28:07;;;;;;;2.63;1.90;;;9.10;99.90;;;;;;10020917;29;20133;-94
2021/01/20 14:33:08;;;;;;;;;;;9.90;99.90;;;;;;10036532;29;20490;-94
2021/01/20 14:38:10;;;;;;;2.27;2.07;;;9.70;99.90;;;;;;10036081;29;19931;-94
2021/01/20 14:43:12;;;;;;;4.60;2.00;;;9.90;99.90;;;;;;10052361;29;20145;-95
2021/01/20 14:48:13;;;;;;;7.60;2.47;;;9.60;99.90;;;;;;10021180;29;20528;-95
2021/01/20 14:53:15;;;;;;;3.10;2.28;;;9.70;99.90;;;;;;10034011;29;20057;-95
2021/01/20 14:58:17;;;;;;;6.65;3.70;;;9.80;99.90;;;;;;10033527;29;20391;-95
2021/01/20 15:03:19;;;;;;;4.00;2.28;;;9.60;99.90;;;;;;10018122;29;20062;-95
2021/01/20 15:08:21;;;;;;;3.75;2.40;;;9.70;99.90;;;;;;10019678;29;20060;-95
2021/01/20 15:13:22;;;;;;;8.77;3.03;;;9.90;99.90;;;;;;10035669;29;20152;-94
2021/01/20 15:18:24;;;;;;;;;;;10.00;99.90;;;;;;10019013;29;20082;-94
2021/01/20 15:23:28;;;;;;;5.35;1.90;;;9.40;99.90;;;;;;10033671;29;19924;-95
2021/01/20 15:28:30;;;;;;;4.90;2.17;;;9.70;99.90;;;;;;10031396;29;20053;-95
2021/01/20 15:33:32;;;;;;;2.85;2.40;;;9.60;99.90;;;;;;10019467;29;20058;-95
2021/01/20 15:38:37;;;;;;;2.95;2.47;;;9.60;99.90;;;;;;10034010;29;20057;-95
2021/01/20 15:43:39;;;;;;;1.90;1.75;;;9.60;99.90;;;;;;10048213;29;20396;-95
2021/01/20 15:48:40;;;;;;;3.65;2.45;;;9.60;99.90;;;;;;10019167;29;20140;-95
2021/01/20 15:53:44;;;;;;;2.97;2.50;;;10.00;99.90;;;;;;10033080;29;20054;-95
2021/01/20 15:58:46;;;;;;;3.17;2.35;;;9.60;99.90;;;;;;10014237;29;20855;-89
2021/01/20 16:03:47;;;;;;;;;;;9.50;99.90;;;;;;10017983;29;20110;-95
2021/01/20 16:08:53;;;;;;;3.72;2.35;;;9.80;99.90;;;;;;10017892;29;19967;-95
2021/01/20 16:13:55;;;;;;;4.70;2.35;;;9.50;99.90;;;;;;10064022;29;20073;-96
2021/01/20 16:18:57;;;;;;;3.42;2.22;;;9.60;99.90;;;;;;10032660;29;20448;-96
2021/01/20 16:23:58;;;;;;;;;;;9.90;99.90;;;;;;10047457;29;20077;-95
2021/01/20 16:29:00;;;;;;;4.55;2.20;;;9.70;99.90;;;;;;10031676;29;20014;-95
2021/01/20 16:34:02;;;;;;;3.45;2.15;;;9.70;99.90;;;;;;10017573;29;20145;-95
2021/01/20 16:39:04;;;;;;;5.03;2.08;;;9.50;99.90;;;;;;10032206;29;20058;-96
2021/01/20 16:44:06;;;;;;;4.07;2.40;;;9.60;99.90;;;;;;10046677;29;20053;-96
2021/01/20 16:49:08;;;;;;;4.13;2.80;;;9.60;99.90;;;;;;10046498;29;20061;-96
2021/01/20 16:54:09;;;;;;;;;;;9.70;99.90;;;;;;10032011;29;20065;-96
2021/01/20 16:59:11;;;;;;;6.60;3.55;;;9.60;99.90;;;;;;10047699;29;20020;-96
2021/01/20 17:04:14;;;;;;;2.10;1.92;;;9.60;99.90;;;;;;10030420;29;20426;-96
2021/01/20 17:09:15;;;;;;;3.92;2.90;;;9.70;99.90;;;;;;10046506;29;20061;-96
2021/01/20 17:14:24;;;;;;;3.20;2.28;;;9.50;99.90;;;;;;10016586;29;20071;-96
2021/01/20 17:19:25;;;;;;;7.35;2.95;;;9.70;99.90;;;;;;10042798;24;20057;-93
2021/01/20 17:24:27;;;;;;;;;;;9.40;99.90;;;;;;10030161;29;20057;-92
2021/01/20 17:29:28;;;;;;;3.33;2.80;;;9.90;99.90;;;;;;10031401;29;19977;-93
2021/01/20 17:34:30;;;;;;;4.32;2.00;;;9.20;99.90;;;;;;10045148;29;20478;-93
2021/01/20 17:39:31;;;;;;;;;;;9.40;99.90;;;;;;10044165;29;20065;-92
2021/01/20 17:44:33;;;;;;;3.42;2.15;;;9.10;99.90;;;;;;10044214;29;20018;-93
2021/01/20 17:49:34;;;;;;;;;;;9.20;99.90;;;;;;10045091;29;20121;-93
2021/01/20 17:54:36;;;;;;;3.45;2.78;;;9.30;99.90;;;;;;10029604;29;19928;-94
2021/01/20 17:59:37;;;;;;;;;;;9.30;99.90;;;;;;10030462;29;20062;-93
2021/01/20 18:04:40;;;;;;;2.20;2.05;;;9.20;99.90;;;;;;10029116;29;20011;-94
2021/01/20 18:09:41;;;;;;;3.40;2.13;;;9.10;99.90;;;;;;10044251;29;20140;-93
2021/01/20 18:14:43;;;;;;;;;;;9.00;99.90;;;;;;10041480;29;20065;-93
2021/01/20 18:19:48;;;;;;;2.72;2.03;;;9.20;99.90;;;;;;10058603;29;19924;-93
2021/01/20 18:24:50;;;;;;;3.03;2.78;;;8.80;99.90;;;;;;10044193;29;20053;-93
2021/01/20 18:29:51;;;;;;;4.55;2.38;;;9.20;99.90;;;;;;10043932;29;20132;-93
2021/01/20 18:34:53;;;;;;;;;;;9.00;99.90;;;;;;10060390;29;20398;-94
2021/01/20 18:39:57;;;;;;;4.13;2.35;;;9.10;99.90;;;;;;10059133;29;20376;-93
2021/01/20 18:45:12;;;;;;;4.50;2.17;;;9.20;99.90;;;;;;10059692;29;20098;-93
2021/01/20 18:50:14;;;;;;;4.93;2.00;;;9.10;99.90;;;;;;10043684;29;20463;-93
2021/01/20 18:55:16;;;;;;;3.25;2.15;;;9.10;99.90;;;;;;10051116;29;20064;-94
2021/01/20 19:00:18;;;;;;;;;;;9.20;99.90;;;;;;10027773;29;20093;-93
2021/01/20 19:05:19;;;;;;;3.72;2.30;;;9.20;99.90;;;;;;10012174;29;20019;-94
2021/01/20 19:10:21;;;;;;;;;;;9.20;99.90;;;;;;10028305;29;20132;-93
2021/01/20 19:15:23;;;;;;;3.78;2.45;;;9.20;99.90;;;;;;10027638;29;19931;-93
2021/01/20 19:20:24;;;;;;;;;;;9.20;99.90;;;;;;10011924;29;20106;-92
2021/01/20 19:25:26;;;;;;;3.42;1.77;;;9.10;99.90;;;;;;10024902;29;20372;-92
2021/01/20 19:30:28;;;;;;;3.75;2.40;;;8.70;99.90;;;;;;10064828;29;20089;-93
2021/01/20 19:35:29;;;;;;;5.10;2.10;;;9.40;99.90;;;;;;10049529;29;20128;-92
2021/01/20 19:40:31;;;;;;;;;;;9.10;99.90;;;;;;10033978;29;20402;-93
2021/01/20 19:45:32;;;;;;;4.20;2.80;;;8.90;99.90;;;;;;10063462;29;19927;-93
2021/01/20 19:50:51;;;;;;;6.07;3.05;;;8.80;99.90;;;;;;10050948;29;20089;-92
2021/01/20 19:55:52;;;;;;;5.38;3.05;;;9.20;99.90;;;;;;10048241;29;20064;-92
2021/01/20 20:00:58;;;;;;;3.47;2.83;;;9.00;99.90;;;;;;10033274;29;20065;-92
2021/01/20 20:06:00;;;;;;;3.67;3.13;;;9.20;99.90;;;;;;10032183;29;20062;-92
2021/01/20 20:11:02;;;;;;;3.90;3.30;;;8.90;99.90;;;;;;10032658;29;20065;-93
2021/01/20 20:16:04;;;;;;;5.25;2.60;;;9.10;99.90;;;;;;10032105;29;20061;-92
2021/01/20 20:21:06;;;;;;;3.83;2.83;;;9.20;99.90;;;;;;10048012;29;20081;-92
2021/01/20 20:26:07;;;;;;;4.82;3.08;;;9.10;99.90;;;;;;10039824;29;20069;-93
2021/01/20 20:31:09;;;;;;;4.43;3.60;;;9.10;99.90;;;;;;9993799;29;20471;-93
2021/01/20 20:36:11;;;;;;;4.28;3.15;;;9.20;99.90;;;;;;9994800;29;20065;-93
2021/01/20 20:41:12;;;;;;;;;;;9.20;99.90;;;;;;10008927;29;20148;-93
2021/01/20 20:46:14;;;;;;;7.07;3.42;;;9.20;99.90;;;;;;10032740;29;19928;-93
2021/01/20 20:51:15;;;;;;;;;;;9.20;99.90;;;;;;10046795;29;20145;-92
2021/01/20 20:56:17;;;;;;;5.82;2.30;;;9.00;99.90;;;;;;10061333;29;19924;-92
2021/01/20 21:01:19;;;;;;;;;;;9.20;99.90;;;;;;10046535;29;20053;-92
2021/01/20 21:06:20;;;;;;;2.88;2.20;;;9.00;99.90;;;;;;10030970;29;20019;-93
2021/01/20 21:11:25;;;;;;;8.00;3.42;;;9.30;99.90;;;;;;10035324;29;20096;-92
2021/01/20 21:16:27;;;;;;;;;;;9.00;99.90;;;;;;9991775;29;20061;-93
2021/01/20 21:21:32;;;;;;;6.55;2.22;;;9.30;99.90;;;;;;10016427;29;20369;-93
2021/01/20 21:26:34;;;;;;;8.93;2.60;;;9.60;99.90;;;;;;10023135;29;20065;-93
2021/01/20 21:31:35;;;;;;;6.07;2.05;;;9.50;99.90;;;;;;10022239;29;20062;-92
2021/01/20 21:36:37;;;;;;;5.32;3.42;;;9.40;99.90;;;;;;10022285;29;20064;-92
2021/01/20 21:41:39;;;;;;;;;;;9.50;99.90;;;;;;10022628;29;20053;-93
2021/01/20 21:46:41;;;;;;;5.78;2.33;;;9.40;99.90;;;;;;10022752;29;19954;-93
2021/01/20 21:51:43;;;;;;;3.78;2.63;;;9.50;99.90;;;;;;10036596;29;20111;-92
2021/01/20 21:56:45;;;;;;;;;;;9.60;99.90;;;;;;10007220;29;20057;-92
2021/01/20 22:01:46;;;;;;;5.20;1.77;;;9.70;99.90;;;;;;10021975;29;19977;-92
2021/01/20 22:06:48;;;;;;;;;;;9.70;99.90;;;;;;10006880;29;20058;-93
2021/01/20 22:11:49;;;;;;;4.00;2.28;;;9.80;99.90;;;;;;10021542;29;20365;-92
2021/01/20 22:16:51;;;;;;;;;;;9.80;99.90;;;;;;10012577;29;20141;-93
2021/01/20 22:21:53;;;;;;;5.47;2.17;;;9.80;99.90;;;;;;10044482;29;19924;-94
2021/01/20 22:26:55;;;;;;;;;;;10.00;99.90;;;;;;10047540;29;20069;-93
2021/01/20 22:31:56;;;;;;;5.53;2.35;;;10.10;99.90;;;;;;10051599;29;19972;-93
2021/01/20 22:36:58;;;;;;;5.72;2.30;;;9.90;99.90;;;;;;10051359;29;20049;-93
2021/01/20 22:42:00;;;;;;;3.97;2.00;;;10.10;99.90;;;;;;10051448;29;20144;-92
2021/01/20 22:47:02;;;;;;;6.85;1.95;;;10.20;99.90;;;;;;10036621;29;20149;-93
2021/01/20 22:52:06;;;;;;;3.03;1.60;;;10.30;99.90;;;;;;10050470;29;20516;-92
2021/01/20 22:57:08;;;;;;;4.63;1.50;;;10.20;99.90;;;;;;10065689;29;20494;-92
2021/01/20 23:02:11;;;;;;;3.20;2.00;;;10.20;99.90;;;;;;10050466;29;20061;-93
2021/01/20 23:07:13;;;;;;;5.13;1.75;;;10.40;99.90;;;;;;10050113;29;20509;-92
2021/01/20 23:12:14;;;;;;;;;;;10.10;99.90;;;;;;10050326;29;20152;-93
